createdAt,value
2018-12-29T00:02:50.297Z,73.30
2018-12-29T00:05:49.774Z,73.30
2018-12-29T00:08:49.063Z,73.20
2018-12-29T00:11:48.449Z,73.30
2018-12-29T00:14:54.815Z,73.30
2018-12-29T00:21:32.166Z,73.30
2018-12-29T00:24:31.531Z,72.80
2018-12-29T00:27:31.736Z,73.40
2018-12-29T00:30:31.361Z,73.30
2018-12-29T00:33:31.107Z,73.40
2018-12-29T00:36:31.418Z,73.40
2018-12-29T00:39:31.062Z,73.40
2018-12-29T00:42:31.193Z,73.40
2018-12-29T00:45:31.574Z,73.40
2018-12-29T00:48:31.142Z,73.40
2018-12-29T00:51:34.435Z,73.40
2018-12-29T00:54:33.661Z,73.40
2018-12-29T00:57:33.641Z,73.50
2018-12-29T01:00:33.900Z,73.50
2018-12-29T01:03:34.094Z,73.50
2018-12-29T01:06:33.770Z,73.50
2018-12-29T01:09:34.063Z,73.50
2018-12-29T01:12:33.483Z,73.50
2018-12-29T01:15:34.809Z,73.60
2018-12-29T01:18:34.410Z,73.60
2018-12-29T01:21:35.613Z,73.50
2018-12-29T01:24:36.251Z,73.50
2018-12-29T01:27:36.216Z,73.50
2018-12-29T01:30:36.254Z,73.60
2018-12-29T01:33:36.207Z,73.60
2018-12-29T01:36:36.586Z,73.50
2018-12-29T01:39:36.218Z,73.60
2018-12-29T01:42:35.887Z,73.60
2018-12-29T01:45:35.631Z,73.60
2018-12-29T01:48:37.586Z,73.50
2018-12-29T01:51:37.105Z,73.60
2018-12-29T01:54:38.471Z,73.60
2018-12-29T01:57:37.680Z,73.70
2018-12-29T02:00:38.097Z,73.60
2018-12-29T02:03:37.799Z,73.60
2018-12-29T02:06:38.298Z,73.60
2018-12-29T02:09:37.682Z,73.60
2018-12-29T02:12:37.146Z,73.60
2018-12-29T02:15:36.721Z,73.60
2018-12-29T02:18:36.243Z,73.60
2018-12-29T02:21:39.558Z,73.60
2018-12-29T02:24:38.855Z,73.60
2018-12-29T02:27:38.422Z,73.60
2018-12-29T02:30:38.717Z,73.70
2018-12-29T02:33:38.240Z,73.70
2018-12-29T02:36:38.100Z,73.70
2018-12-29T02:39:38.185Z,73.60
2018-12-29T02:42:38.579Z,73.60
2018-12-29T02:45:40.544Z,73.70
2018-12-29T02:48:40.187Z,73.60
2018-12-29T02:51:40.138Z,73.60
2018-12-29T02:54:40.240Z,74.40
2018-12-29T02:57:40.708Z,73.70
2018-12-29T03:00:40.241Z,73.70
2018-12-29T03:03:42.572Z,73.60
2018-12-29T03:06:42.074Z,73.50
2018-12-29T03:09:41.540Z,73.70
2018-12-29T03:12:41.141Z,73.70
2018-12-29T03:15:42.047Z,73.70
2018-12-29T03:18:41.872Z,73.50
2018-12-29T03:21:42.587Z,73.60
2018-12-29T03:24:42.722Z,73.70
2018-12-29T03:27:43.541Z,73.80
2018-12-29T03:30:44.193Z,73.60
2018-12-29T03:33:43.646Z,73.60
2018-12-29T03:36:53.428Z,73.50
2018-12-29T03:39:53.739Z,73.60
2018-12-29T03:42:53.092Z,73.70
2018-12-29T03:45:52.507Z,73.70
2018-12-29T03:48:51.754Z,73.60
2018-12-29T03:51:51.769Z,73.60
2018-12-29T03:54:51.874Z,73.60
2018-12-29T03:57:51.127Z,73.70
2018-12-29T04:00:50.339Z,73.70
2018-12-29T04:03:49.601Z,73.60
2018-12-29T04:06:50.581Z,73.60
2018-12-29T04:09:50.781Z,74.30
2018-12-29T04:12:53.903Z,73.60
2018-12-29T04:15:58.192Z,73.70
2018-12-29T04:18:58.046Z,73.60
2018-12-29T04:21:57.785Z,74.30
2018-12-29T04:24:58.282Z,73.60
2018-12-29T04:27:57.664Z,73.70
2018-12-29T04:30:57.965Z,73.70
2018-12-29T04:33:57.333Z,73.70
2018-12-29T04:36:57.919Z,73.70
2018-12-29T04:39:57.315Z,73.60
2018-12-29T04:42:57.986Z,73.60
2018-12-29T04:46:05.076Z,73.60
2018-12-29T04:48:59.135Z,73.60
2018-12-29T04:51:59.485Z,73.60
2018-12-29T04:54:58.897Z,73.70
2018-12-29T04:57:58.890Z,73.60
2018-12-29T05:00:58.202Z,73.70
2018-12-29T05:03:58.521Z,73.70
2018-12-29T05:06:57.704Z,73.70
2018-12-29T05:10:16.810Z,73.70
2018-12-29T05:13:18.790Z,73.70
2018-12-29T05:16:18.050Z,73.90
2018-12-29T05:19:18.419Z,73.70
2018-12-29T05:22:18.297Z,73.70
2018-12-29T05:25:18.546Z,73.80
2018-12-29T05:28:17.885Z,73.70
2018-12-29T05:31:17.074Z,73.60
2018-12-29T05:34:16.928Z,73.60
2018-12-29T05:37:16.079Z,73.60
2018-12-29T05:40:15.346Z,73.60
2018-12-29T05:43:15.503Z,73.60
2018-12-29T05:46:20.434Z,73.60
2018-12-29T05:49:16.081Z,74.10
2018-12-29T05:52:15.254Z,73.60
2018-12-29T05:55:14.435Z,73.70
2018-12-29T05:58:14.597Z,73.70
2018-12-29T06:01:13.871Z,73.60
2018-12-29T06:04:15.243Z,73.80
2018-12-29T06:07:15.485Z,73.60
2018-12-29T06:10:14.897Z,73.70
2018-12-29T06:13:14.193Z,73.60
2018-12-29T06:16:14.345Z,73.70
2018-12-29T06:19:14.590Z,73.70
2018-12-29T06:22:13.760Z,73.60
2018-12-29T06:25:13.560Z,73.60
2018-12-29T06:28:12.874Z,73.60
2018-12-29T06:31:12.150Z,73.70
2018-12-29T06:34:16.390Z,73.60
2018-12-29T06:37:15.524Z,74.40
2018-12-29T06:40:14.728Z,73.70
2018-12-29T06:43:14.060Z,73.60
2018-12-29T06:46:13.242Z,73.50
2018-12-29T06:49:12.403Z,73.60
2018-12-29T06:52:13.006Z,73.60
2018-12-29T06:55:12.298Z,73.60
2018-12-29T06:58:11.484Z,73.60
2018-12-29T07:01:10.777Z,73.50
2018-12-29T07:04:10.314Z,73.50
2018-12-29T07:07:09.548Z,73.60
2018-12-29T07:10:09.501Z,73.70
2018-12-29T07:13:09.565Z,73.90
2018-12-29T07:16:09.219Z,73.50
2018-12-29T07:19:08.490Z,73.60
2018-12-29T07:22:07.871Z,73.50
2018-12-29T07:25:11.842Z,73.60
2018-12-29T07:28:12.403Z,73.50
2018-12-29T07:31:12.565Z,73.50
2018-12-29T07:34:12.794Z,73.40
2018-12-29T07:37:12.877Z,73.50
2018-12-29T07:40:13.031Z,73.50
2018-12-29T07:43:13.077Z,73.50
2018-12-29T07:46:12.217Z,73.50
2018-12-29T07:49:12.003Z,73.50
2018-12-29T07:52:11.374Z,73.40
2018-12-29T07:55:11.143Z,73.50
2018-12-29T07:58:11.714Z,73.50
2018-12-29T08:01:11.727Z,73.50
2018-12-29T08:04:11.169Z,73.50
2018-12-29T08:07:10.475Z,73.50
2018-12-29T08:10:10.403Z,73.50
2018-12-29T08:13:10.927Z,73.60
2018-12-29T08:16:11.277Z,73.50
2018-12-29T08:19:11.579Z,73.60
2018-12-29T08:22:11.935Z,73.60
2018-12-29T08:25:14.238Z,73.50
2018-12-29T08:28:13.404Z,73.40
2018-12-29T08:31:12.862Z,73.50
2018-12-29T08:34:12.651Z,73.40
2018-12-29T08:37:13.905Z,73.40
2018-12-29T08:40:13.240Z,73.30
2018-12-29T08:43:12.607Z,73.30
2018-12-29T08:46:12.984Z,73.20
2018-12-29T08:49:15.635Z,73.20
2018-12-29T08:52:15.109Z,73.20
2018-12-29T08:55:19.818Z,73.00
2018-12-29T08:58:19.063Z,73.00
2018-12-29T09:01:27.230Z,73.00
2018-12-29T09:04:26.539Z,72.70
2018-12-29T09:07:26.489Z,72.80
2018-12-29T09:10:27.575Z,72.90
2018-12-29T09:13:28.023Z,72.90
2018-12-29T09:16:27.431Z,72.80
2018-12-29T09:19:31.307Z,72.90
2018-12-29T09:22:31.382Z,72.80
2018-12-29T09:25:30.630Z,72.70
2018-12-29T09:28:31.112Z,72.80
2018-12-29T09:31:30.525Z,72.60
2018-12-29T09:34:33.434Z,72.70
2018-12-29T09:37:33.540Z,72.70
2018-12-29T09:40:33.399Z,72.60
2018-12-29T09:43:34.313Z,72.60
2018-12-29T09:46:33.657Z,72.40
2018-12-29T09:49:33.072Z,72.50
2018-12-29T09:52:32.415Z,72.40
2018-12-29T09:55:32.113Z,72.30
2018-12-29T09:58:32.616Z,72.40
2018-12-29T10:01:31.920Z,72.50
2018-12-29T10:04:31.398Z,72.50
2018-12-29T10:07:34.814Z,72.40
2018-12-29T10:10:34.303Z,72.40
2018-12-29T10:13:33.628Z,72.50
2018-12-29T10:16:33.050Z,72.30
2018-12-29T10:19:32.383Z,72.40
2018-12-29T10:22:31.840Z,72.40
2018-12-29T10:25:33.150Z,72.50
2018-12-29T10:28:32.703Z,72.30
2018-12-29T10:31:39.199Z,72.30
2018-12-29T10:34:38.685Z,72.20
2018-12-29T10:37:38.739Z,66.50
2018-12-29T10:40:37.982Z,63.60
2018-12-29T10:43:47.416Z,64.00
2018-12-29T10:46:56.249Z,63.80
2018-12-29T10:49:57.470Z,64.50
2018-12-29T10:52:57.831Z,63.60
2018-12-29T10:55:57.229Z,64.20
2018-12-29T10:58:56.510Z,64.30
2018-12-29T11:02:01.663Z,64.10
2018-12-29T11:05:01.693Z,64.70
2018-12-29T11:08:01.295Z,65.00
2018-12-29T11:11:02.356Z,64.70
2018-12-29T11:14:02.873Z,65.60
2018-12-29T11:17:02.960Z,65.50
2018-12-29T11:20:02.316Z,65.50
2018-12-29T11:23:02.213Z,65.90
2018-12-29T11:26:02.019Z,66.20
2018-12-29T11:29:02.217Z,66.50
2018-12-29T11:32:01.520Z,66.20
2018-12-29T11:35:00.914Z,66.20
2018-12-29T11:38:00.488Z,66.80
2018-12-29T11:41:01.160Z,67.00
2018-12-29T11:44:01.494Z,68.00
2018-12-29T11:47:01.752Z,67.70
2018-12-29T11:50:02.465Z,68.00
2018-12-29T11:53:02.819Z,68.20
2018-12-29T11:56:02.056Z,68.50
2018-12-29T11:59:03.157Z,68.70
2018-12-29T12:02:07.312Z,68.90
2018-12-29T12:05:11.389Z,69.10
2018-12-29T12:08:12.636Z,69.30
2018-12-29T12:11:13.798Z,69.40
2018-12-29T12:14:16.217Z,69.50
2018-12-29T12:17:17.572Z,69.60
2018-12-29T12:20:20.300Z,69.90
2018-12-29T12:23:21.824Z,70.00
2018-12-29T12:26:23.749Z,70.00
2018-12-29T12:29:26.593Z,70.10
2018-12-29T12:32:28.917Z,70.30
2018-12-29T12:35:31.448Z,70.40
2018-12-29T12:38:33.137Z,70.50
2018-12-29T12:41:34.960Z,70.60
2018-12-29T12:44:37.802Z,70.70
2018-12-29T12:47:44.396Z,70.90
2018-12-29T12:50:45.451Z,71.00
2018-12-29T12:53:46.842Z,71.00
2018-12-29T12:56:48.550Z,71.10
2018-12-29T12:59:51.247Z,71.30
2018-12-29T13:02:54.779Z,71.30
2018-12-29T13:05:55.077Z,71.50
2018-12-29T13:08:54.610Z,71.40
2018-12-29T13:11:55.352Z,71.50
2018-12-29T13:14:54.955Z,72.20
2018-12-29T13:17:55.420Z,71.60
2018-12-29T13:20:56.162Z,71.60
2018-12-29T13:23:56.758Z,71.60
2018-12-29T13:26:57.027Z,71.60
2018-12-29T13:29:57.425Z,71.60
2018-12-29T13:32:59.142Z,71.50
2018-12-29T13:36:01.604Z,71.60
2018-12-29T13:39:01.205Z,71.70
2018-12-29T13:42:01.706Z,71.60
2018-12-29T13:45:02.118Z,71.60
2018-12-29T13:48:02.569Z,71.60
2018-12-29T13:51:02.431Z,71.60
2018-12-29T13:54:02.572Z,71.40
2018-12-29T13:57:01.897Z,71.60
2018-12-29T14:00:01.300Z,71.70
2018-12-29T14:03:00.791Z,72.20
2018-12-29T14:06:04.311Z,71.30
2018-12-29T14:09:04.994Z,71.50
2018-12-29T14:12:07.233Z,71.60
2018-12-29T14:15:06.953Z,71.50
2018-12-29T14:18:07.141Z,71.60
2018-12-29T14:21:09.695Z,71.50
2018-12-29T14:24:10.176Z,71.60
2018-12-29T14:27:09.489Z,71.60
2018-12-29T14:30:09.065Z,71.80
2018-12-29T14:33:09.496Z,71.80
2018-12-29T14:36:09.492Z,72.00
2018-12-29T14:39:09.252Z,72.00
2018-12-29T14:42:08.828Z,72.00
2018-12-29T14:45:08.097Z,72.00
2018-12-29T14:48:08.220Z,72.30
2018-12-29T14:51:09.200Z,72.20
2018-12-29T14:54:10.316Z,72.20
2018-12-29T14:57:10.750Z,72.20
2018-12-29T15:00:10.413Z,72.20
2018-12-29T15:03:09.785Z,72.30
2018-12-29T15:06:11.185Z,72.30
2018-12-29T15:09:10.655Z,72.40
2018-12-29T15:12:11.341Z,72.40
2018-12-29T15:15:10.533Z,72.50
2018-12-29T15:18:09.987Z,72.50
2018-12-29T15:21:09.676Z,72.60
2018-12-29T15:24:09.110Z,72.70
2018-12-29T15:27:09.387Z,72.60
2018-12-29T15:30:10.035Z,72.60
2018-12-29T15:33:12.264Z,72.50
2018-12-29T15:36:16.972Z,72.50
2018-12-29T15:39:17.017Z,72.60
2018-12-29T15:42:16.405Z,72.50
2018-12-29T15:45:16.851Z,72.60
2018-12-29T15:48:22.029Z,72.60
2018-12-29T15:51:21.571Z,73.10
2018-12-29T15:54:21.655Z,72.80
2018-12-29T15:57:21.714Z,72.80
2018-12-29T16:00:21.588Z,72.70
2018-12-29T16:03:23.306Z,72.70
2018-12-29T16:06:23.091Z,72.80
2018-12-29T16:09:28.791Z,72.70
2018-12-29T16:12:29.739Z,72.80
2018-12-29T16:15:30.054Z,72.60
2018-12-29T16:18:30.552Z,72.60
2018-12-29T16:21:34.718Z,72.50
2018-12-29T16:24:34.152Z,72.50
2018-12-29T16:27:34.571Z,73.30
2018-12-29T16:30:34.990Z,72.60
2018-12-29T16:33:37.167Z,73.20
2018-12-29T16:36:36.862Z,72.60
2018-12-29T16:39:36.354Z,72.70
2018-12-29T16:42:36.354Z,72.60
2018-12-29T16:45:36.989Z,72.70
2018-12-29T16:48:38.744Z,72.70
2018-12-29T16:51:37.971Z,72.70
2018-12-29T16:54:42.563Z,72.70
2018-12-29T16:57:42.633Z,72.70
2018-12-29T17:00:42.183Z,72.80
2018-12-29T17:03:42.596Z,72.90
2018-12-29T17:06:42.692Z,72.80
2018-12-29T17:09:43.797Z,73.00
2018-12-29T17:12:44.189Z,73.00
2018-12-29T17:15:45.707Z,73.00
2018-12-29T17:18:46.073Z,73.40
2018-12-29T17:21:47.188Z,73.10
2018-12-29T17:24:46.674Z,73.20
2018-12-29T17:27:46.813Z,73.80
2018-12-29T17:30:52.704Z,73.90
2018-12-29T17:33:52.002Z,73.20
2018-12-29T17:36:54.044Z,73.20
2018-12-29T17:39:53.747Z,73.30
2018-12-29T17:42:54.226Z,73.30
2018-12-29T17:45:53.692Z,73.40
2018-12-29T17:48:57.081Z,73.40
2018-12-29T17:51:56.474Z,73.30
2018-12-29T17:54:58.728Z,73.30
2018-12-29T17:57:59.807Z,73.30
2018-12-29T18:01:00.746Z,73.40
2018-12-29T18:04:01.344Z,73.30
2018-12-29T18:07:02.008Z,73.30
2018-12-29T18:10:02.001Z,73.40
2018-12-29T18:13:01.840Z,73.30
2018-12-29T18:16:01.855Z,73.30
2018-12-29T18:19:01.275Z,73.20
2018-12-29T18:22:06.710Z,73.20
2018-12-29T18:25:06.310Z,73.20
2018-12-29T18:28:10.948Z,73.20
2018-12-29T18:31:11.849Z,73.30
2018-12-29T18:34:12.187Z,73.30
2018-12-29T18:37:14.583Z,73.40
2018-12-29T18:40:16.075Z,73.10
2018-12-29T18:43:18.662Z,73.30
2018-12-29T18:46:18.856Z,73.20
2018-12-29T18:49:19.237Z,73.20
2018-12-29T18:52:19.779Z,73.70
2018-12-29T18:55:21.144Z,73.10
2018-12-29T18:58:21.474Z,73.20
2018-12-29T19:01:22.014Z,73.20
2018-12-29T19:04:22.005Z,73.20
2018-12-29T19:07:23.681Z,73.30
2018-12-29T19:10:23.209Z,73.30
2018-12-29T19:13:23.856Z,73.20
2018-12-29T19:16:25.334Z,73.40
2018-12-29T19:19:24.624Z,73.30
2018-12-29T19:22:24.917Z,73.30
2018-12-29T19:25:26.194Z,73.30
2018-12-29T19:28:25.783Z,73.30
2018-12-29T19:31:26.277Z,73.30
2018-12-29T19:34:28.678Z,73.40
2018-12-29T19:37:29.260Z,73.30
2018-12-29T19:40:29.539Z,73.40
2018-12-29T19:43:43.791Z,73.40
2018-12-29T19:46:44.309Z,73.40
2018-12-29T19:49:43.880Z,73.40
2018-12-29T19:52:48.086Z,73.40
2018-12-29T19:55:47.979Z,73.50
2018-12-29T19:58:47.717Z,73.50
2018-12-29T20:01:48.948Z,73.50
2018-12-29T20:04:48.704Z,73.50
2018-12-29T20:07:48.362Z,73.60
2018-12-29T20:10:47.662Z,73.60
2018-12-29T20:13:47.867Z,73.50
2018-12-29T20:16:50.085Z,73.70
2018-12-29T20:19:49.390Z,73.70
2018-12-29T20:22:51.089Z,73.80
2018-12-29T20:25:50.516Z,73.70
2018-12-29T20:28:50.938Z,73.80
2018-12-29T20:31:50.427Z,73.80
2018-12-29T20:34:51.082Z,73.80
2018-12-29T20:37:50.593Z,73.80
2018-12-29T20:40:52.771Z,73.70
2018-12-29T20:43:52.014Z,73.80
2018-12-29T20:46:51.613Z,73.80
2018-12-29T20:49:53.846Z,73.90
2018-12-29T20:52:53.112Z,73.90
2018-12-29T20:55:59.855Z,73.90
2018-12-29T20:59:00.917Z,73.90
2018-12-29T21:02:00.992Z,73.90
2018-12-29T21:05:00.435Z,73.80
2018-12-29T21:08:00.073Z,73.80
2018-12-29T21:11:00.747Z,73.80
2018-12-29T21:14:00.106Z,73.80
2018-12-29T21:16:59.661Z,73.80
2018-12-29T21:20:04.352Z,73.90
2018-12-29T21:23:04.479Z,73.80
2018-12-29T21:26:05.060Z,73.80
2018-12-29T21:29:05.075Z,73.70
2018-12-29T21:32:04.503Z,73.80
2018-12-29T21:35:11.033Z,73.70
2018-12-29T21:38:10.769Z,73.70
2018-12-29T21:41:11.518Z,73.80
2018-12-29T21:44:11.219Z,73.10
2018-12-29T21:47:11.275Z,73.70
2018-12-29T21:50:12.692Z,73.70
2018-12-29T21:53:14.024Z,73.80
2018-12-29T21:56:13.425Z,73.70
2018-12-29T21:59:12.919Z,73.70
2018-12-29T22:02:13.287Z,73.60
2018-12-29T22:05:15.533Z,73.80
2018-12-29T22:08:15.675Z,73.80
2018-12-29T22:11:15.728Z,73.70
2018-12-29T22:14:15.960Z,73.60
2018-12-29T22:17:16.063Z,73.60
2018-12-29T22:20:15.511Z,73.60
2018-12-29T22:23:15.072Z,73.50
2018-12-29T22:26:15.888Z,73.60
2018-12-29T22:29:15.327Z,73.60
2018-12-29T22:32:15.224Z,73.40
2018-12-29T22:35:17.095Z,73.40
2018-12-29T22:38:17.228Z,73.40
2018-12-29T22:41:16.615Z,73.40
2018-12-29T22:44:16.024Z,73.40
2018-12-29T22:47:18.307Z,73.40
2018-12-29T22:50:18.730Z,73.50
2018-12-29T22:53:19.685Z,73.40
2018-12-29T22:56:20.388Z,73.40
2018-12-29T22:59:19.773Z,73.40
2018-12-29T23:02:20.951Z,73.50
2018-12-29T23:05:20.332Z,73.40
2018-12-29T23:08:19.731Z,73.30
2018-12-29T23:11:19.288Z,73.20
2018-12-29T23:14:18.732Z,73.30
2018-12-29T23:17:18.990Z,73.20
2018-12-29T23:20:18.554Z,73.30
2018-12-29T23:23:17.995Z,73.30
2018-12-29T23:26:17.622Z,73.20
2018-12-29T23:29:18.248Z,73.20
2018-12-29T23:32:20.434Z,73.20
2018-12-29T23:35:20.817Z,73.40
2018-12-29T23:38:21.296Z,73.10
2018-12-29T23:41:20.670Z,73.20
2018-12-29T23:44:21.247Z,73.20
2018-12-29T23:47:20.599Z,73.20
2018-12-29T23:50:19.985Z,73.30
2018-12-29T23:53:21.426Z,73.30
2018-12-29T23:56:21.818Z,73.30
2018-12-29T23:59:27.776Z,73.40
